sensor_id;sensor_type;location;lat;lon;timestamp;temperature;humidity
3940;DHT22;1984;48.312;9.244;2023-12-07T00:00:17;0.70;99.90
3940;DHT22;1984;48.312;9.244;2023-12-07T00:02:43;0.60;99.90
3940;DHT22;1984;48.312;9.244;2023-12-07T00:05:08;0.50;99.90
3940;DHT22;1984;48.312;9.244;2023-12-07T00:07:34;0.50;99.90
3940;DHT22;1984;48.312;9.244;2023-12-07T00:09:59;0.50;99.90
3940;DHT22;1984;48.312;9.244;2023-12-07T00:12:25;0.30;99.90
3940;DHT22;1984;48.312;9.244;2023-12-07T00:14:50;0.20;99.90
3940;DHT22;1984;48.312;9.244;2023-12-07T00:17:16;0.20;99.90
3940;DHT22;1984;48.312;9.244;2023-12-07T00:19:41;0.20;99.90
3940;DHT22;1984;48.312;9.244;2023-12-07T00:22:07;0.20;99.90
3940;DHT22;1984;48.312;9.244;2023-12-07T00:24:32;0.20;99.90
3940;DHT22;1984;48.312;9.244;2023-12-07T00:26:58;0.10;99.90
3940;DHT22;1984;48.312;9.244;2023-12-07T00:29:23;0.00;99.90
3940;DHT22;1984;48.312;9.244;2023-12-07T00:31:49;0.00;99.90
3940;DHT22;1984;48.312;9.244;2023-12-07T00:34:14;0.00;99.90
3940;DHT22;1984;48.312;9.244;2023-12-07T00:36:42;0.00;99.90
3940;DHT22;1984;48.312;9.244;2023-12-07T00:39:08;0.10;99.90
3940;DHT22;1984;48.312;9.244;2023-12-07T00:41:34;0.10;99.90
3940;DHT22;1984;48.312;9.244;2023-12-07T00:43:59;0.10;99.90
3940;DHT22;1984;48.312;9.244;2023-12-07T00:46:25;0.10;99.90
3940;DHT22;1984;48.312;9.244;2023-12-07T00:48:50;0.10;99.90
3940;DHT22;1984;48.312;9.244;2023-12-07T00:51:16;0.10;99.90
3940;DHT22;1984;48.312;9.244;2023-12-07T00:53:41;0.10;99.90
3940;DHT22;1984;48.312;9.244;2023-12-07T00:56:07;0.00;99.90
3940;DHT22;1984;48.312;9.244;2023-12-07T00:58:33;-0.10;99.90
3940;DHT22;1984;48.312;9.244;2023-12-07T01:00:58;-0.20;99.90
3940;DHT22;1984;48.312;9.244;2023-12-07T01:03:24;-0.20;99.90
3940;DHT22;1984;48.312;9.244;2023-12-07T01:05:49;-0.20;99.90
3940;DHT22;1984;48.312;9.244;2023-12-07T01:08:15;-0.20;99.90
3940;DHT22;1984;48.312;9.244;2023-12-07T01:10:40;-0.20;99.90
3940;DHT22;1984;48.312;9.244;2023-12-07T01:13:06;-0.20;99.90
3940;DHT22;1984;48.312;9.244;2023-12-07T01:15:31;-0.30;99.90
3940;DHT22;1984;48.312;9.244;2023-12-07T01:17:57;-0.30;99.90
3940;DHT22;1984;48.312;9.244;2023-12-07T01:20:22;-0.40;99.90
3940;DHT22;1984;48.312;9.244;2023-12-07T01:22:48;-0.40;99.90
3940;DHT22;1984;48.312;9.244;2023-12-07T01:25:14;-0.50;99.90
3940;DHT22;1984;48.312;9.244;2023-12-07T01:27:45;-0.50;99.90
3940;DHT22;1984;48.312;9.244;2023-12-07T01:30:10;-0.60;99.90
3940;DHT22;1984;48.312;9.244;2023-12-07T01:32:36;-0.70;99.90
3940;DHT22;1984;48.312;9.244;2023-12-07T01:35:01;-0.80;99.90
3940;DHT22;1984;48.312;9.244;2023-12-07T01:37:27;-0.80;99.90
3940;DHT22;1984;48.312;9.244;2023-12-07T01:39:54;-0.80;99.90
3940;DHT22;1984;48.312;9.244;2023-12-07T01:42:20;-0.80;99.90
3940;DHT22;1984;48.312;9.244;2023-12-07T01:44:45;-0.80;99.90
3940;DHT22;1984;48.312;9.244;2023-12-07T01:47:11;-0.80;99.90
3940;DHT22;1984;48.312;9.244;2023-12-07T01:49:37;-0.80;99.90
3940;DHT22;1984;48.312;9.244;2023-12-07T01:52:03;-0.80;99.90
3940;DHT22;1984;48.312;9.244;2023-12-07T01:54:29;-0.80;99.90
3940;DHT22;1984;48.312;9.244;2023-12-07T01:56:55;-0.90;99.90
3940;DHT22;1984;48.312;9.244;2023-12-07T01:59:21;-0.90;99.90
3940;DHT22;1984;48.312;9.244;2023-12-07T02:01:47;-0.90;99.90
3940;DHT22;1984;48.312;9.244;2023-12-07T02:04:13;-1.10;99.90
3940;DHT22;1984;48.312;9.244;2023-12-07T02:06:39;-1.20;99.90
3940;DHT22;1984;48.312;9.244;2023-12-07T02:09:05;-1.30;99.90
3940;DHT22;1984;48.312;9.244;2023-12-07T02:11:31;-1.40;99.90
3940;DHT22;1984;48.312;9.244;2023-12-07T02:13:56;-1.50;99.90
3940;DHT22;1984;48.312;9.244;2023-12-07T02:16:39;-1.50;99.90
3940;DHT22;1984;48.312;9.244;2023-12-07T02:22:06;-1.50;99.90
3940;DHT22;1984;48.312;9.244;2023-12-07T02:24:37;-1.60;99.90
3940;DHT22;1984;48.312;9.244;2023-12-07T02:27:05;-1.70;99.90
3940;DHT22;1984;48.312;9.244;2023-12-07T02:29:30;-1.80;99.90
3940;DHT22;1984;48.312;9.244;2023-12-07T02:31:56;-1.90;99.90
3940;DHT22;1984;48.312;9.244;2023-12-07T02:34:21;-2.20;99.90
3940;DHT22;1984;48.312;9.244;2023-12-07T02:36:48;-2.30;99.90
3940;DHT22;1984;48.312;9.244;2023-12-07T02:39:15;-2.40;99.90
3940;DHT22;1984;48.312;9.244;2023-12-07T02:41:43;-2.50;99.90
3940;DHT22;1984;48.312;9.244;2023-12-07T02:44:10;-2.50;99.90
3940;DHT22;1984;48.312;9.244;2023-12-07T02:46:37;-2.50;99.90
3940;DHT22;1984;48.312;9.244;2023-12-07T02:49:02;-2.40;99.90
3940;DHT22;1984;48.312;9.244;2023-12-07T02:51:28;-2.30;99.90
3940;DHT22;1984;48.312;9.244;2023-12-07T02:53:53;-2.30;99.90
3940;DHT22;1984;48.312;9.244;2023-12-07T02:56:19;-2.30;99.90
3940;DHT22;1984;48.312;9.244;2023-12-07T02:58:44;-2.30;99.90
3940;DHT22;1984;48.312;9.244;2023-12-07T03:01:10;-2.20;99.90
3940;DHT22;1984;48.312;9.244;2023-12-07T03:03:35;-2.30;99.90
3940;DHT22;1984;48.312;9.244;2023-12-07T03:06:04;-2.30;99.90
3940;DHT22;1984;48.312;9.244;2023-12-07T03:08:29;-2.50;99.90
3940;DHT22;1984;48.312;9.244;2023-12-07T03:10:55;-2.60;99.90
3940;DHT22;1984;48.312;9.244;2023-12-07T03:13:20;-2.60;99.90
3940;DHT22;1984;48.312;9.244;2023-12-07T03:15:46;-2.60;99.90
3940;DHT22;1984;48.312;9.244;2023-12-07T03:18:11;-2.70;99.90
3940;DHT22;1984;48.312;9.244;2023-12-07T03:20:37;-2.60;99.90
3940;DHT22;1984;48.312;9.244;2023-12-07T03:23:02;-2.60;99.90
3940;DHT22;1984;48.312;9.244;2023-12-07T03:25:28;-2.60;99.90
3940;DHT22;1984;48.312;9.244;2023-12-07T03:27:53;-2.50;99.90
3940;DHT22;1984;48.312;9.244;2023-12-07T03:30:19;-2.50;99.90
3940;DHT22;1984;48.312;9.244;2023-12-07T03:32:44;-2.50;99.90
3940;DHT22;1984;48.312;9.244;2023-12-07T03:35:10;-2.50;99.90
3940;DHT22;1984;48.312;9.244;2023-12-07T03:37:36;-2.60;99.90
3940;DHT22;1984;48.312;9.244;2023-12-07T03:40:01;-2.70;99.90
3940;DHT22;1984;48.312;9.244;2023-12-07T03:42:29;-2.70;99.90
3940;DHT22;1984;48.312;9.244;2023-12-07T03:44:55;-2.80;99.90
3940;DHT22;1984;48.312;9.244;2023-12-07T03:47:20;-2.70;99.90
3940;DHT22;1984;48.312;9.244;2023-12-07T03:49:46;-2.80;99.90
3940;DHT22;1984;48.312;9.244;2023-12-07T03:52:11;-2.80;99.90
3940;DHT22;1984;48.312;9.244;2023-12-07T03:54:37;-2.90;99.90
3940;DHT22;1984;48.312;9.244;2023-12-07T03:57:03;-2.90;99.90
3940;DHT22;1984;48.312;9.244;2023-12-07T03:59:29;-2.90;99.90
3940;DHT22;1984;48.312;9.244;2023-12-07T04:01:55;-3.00;99.90
3940;DHT22;1984;48.312;9.244;2023-12-07T04:04:20;-3.10;99.90
3940;DHT22;1984;48.312;9.244;2023-12-07T04:06:46;-3.10;99.90
3940;DHT22;1984;48.312;9.244;2023-12-07T04:09:12;-3.10;99.90
3940;DHT22;1984;48.312;9.244;2023-12-07T04:11:37;-3.20;99.90
3940;DHT22;1984;48.312;9.244;2023-12-07T04:14:03;-3.20;99.90
3940;DHT22;1984;48.312;9.244;2023-12-07T04:16:28;-3.30;99.90
3940;DHT22;1984;48.312;9.244;2023-12-07T04:18:54;-3.30;99.90
3940;DHT22;1984;48.312;9.244;2023-12-07T04:21:19;-3.40;99.90
3940;DHT22;1984;48.312;9.244;2023-12-07T04:23:45;-3.50;99.90
3940;DHT22;1984;48.312;9.244;2023-12-07T04:26:10;-3.60;99.90
3940;DHT22;1984;48.312;9.244;2023-12-07T04:28:36;-3.60;99.90
3940;DHT22;1984;48.312;9.244;2023-12-07T04:31:02;-3.60;99.90
3940;DHT22;1984;48.312;9.244;2023-12-07T04:33:28;-3.70;99.90
3940;DHT22;1984;48.312;9.244;2023-12-07T04:35:53;-3.70;99.90
3940;DHT22;1984;48.312;9.244;2023-12-07T04:38:19;-3.80;99.90
3940;DHT22;1984;48.312;9.244;2023-12-07T04:40:44;-3.90;99.90
3940;DHT22;1984;48.312;9.244;2023-12-07T04:43:10;-4.00;99.90
3940;DHT22;1984;48.312;9.244;2023-12-07T04:45:35;-4.10;99.90
3940;DHT22;1984;48.312;9.244;2023-12-07T04:48:01;-4.10;99.90
3940;DHT22;1984;48.312;9.244;2023-12-07T04:50:27;-4.10;99.90
3940;DHT22;1984;48.312;9.244;2023-12-07T04:52:53;-4.10;99.90
3940;DHT22;1984;48.312;9.244;2023-12-07T04:55:20;-4.10;99.90
3940;DHT22;1984;48.312;9.244;2023-12-07T04:57:45;-4.20;99.90
3940;DHT22;1984;48.312;9.244;2023-12-07T05:00:11;-4.30;99.90
3940;DHT22;1984;48.312;9.244;2023-12-07T05:02:38;-4.30;99.90
3940;DHT22;1984;48.312;9.244;2023-12-07T05:05:04;-4.30;99.90
3940;DHT22;1984;48.312;9.244;2023-12-07T05:07:30;-4.30;99.90
3940;DHT22;1984;48.312;9.244;2023-12-07T05:09:55;-4.30;99.90
3940;DHT22;1984;48.312;9.244;2023-12-07T05:12:21;-4.40;99.90
3940;DHT22;1984;48.312;9.244;2023-12-07T05:14:47;-4.50;99.90
3940;DHT22;1984;48.312;9.244;2023-12-07T05:17:12;-4.60;99.90
3940;DHT22;1984;48.312;9.244;2023-12-07T05:19:38;-4.70;99.90
3940;DHT22;1984;48.312;9.244;2023-12-07T05:22:03;-4.60;99.90
3940;DHT22;1984;48.312;9.244;2023-12-07T05:24:29;-4.60;99.90
3940;DHT22;1984;48.312;9.244;2023-12-07T05:26:57;-4.50;99.90
3940;DHT22;1984;48.312;9.244;2023-12-07T05:29:23;-4.50;99.90
3940;DHT22;1984;48.312;9.244;2023-12-07T05:31:49;-4.50;99.90
3940;DHT22;1984;48.312;9.244;2023-12-07T05:34:16;-4.50;99.90
3940;DHT22;1984;48.312;9.244;2023-12-07T05:36:41;-4.40;99.90
3940;DHT22;1984;48.312;9.244;2023-12-07T05:39:07;-4.30;99.90
3940;DHT22;1984;48.312;9.244;2023-12-07T05:41:33;-4.40;99.90
3940;DHT22;1984;48.312;9.244;2023-12-07T05:43:58;-4.40;99.90
3940;DHT22;1984;48.312;9.244;2023-12-07T05:46:24;-4.50;99.90
3940;DHT22;1984;48.312;9.244;2023-12-07T05:48:49;-4.40;99.90
3940;DHT22;1984;48.312;9.244;2023-12-07T05:51:18;-4.50;99.90
3940;DHT22;1984;48.312;9.244;2023-12-07T05:53:44;-4.60;99.90
3940;DHT22;1984;48.312;9.244;2023-12-07T05:56:10;-4.60;99.90
3940;DHT22;1984;48.312;9.244;2023-12-07T05:58:36;-4.70;99.90
3940;DHT22;1984;48.312;9.244;2023-12-07T06:01:01;-4.80;99.90
3940;DHT22;1984;48.312;9.244;2023-12-07T06:03:28;-4.90;99.90
3940;DHT22;1984;48.312;9.244;2023-12-07T06:05:53;-5.10;99.90
3940;DHT22;1984;48.312;9.244;2023-12-07T06:08:19;-5.10;99.90
3940;DHT22;1984;48.312;9.244;2023-12-07T06:10:45;-5.30;99.90
3940;DHT22;1984;48.312;9.244;2023-12-07T06:13:12;-5.30;99.90
3940;DHT22;1984;48.312;9.244;2023-12-07T06:15:37;-5.50;99.90
3940;DHT22;1984;48.312;9.244;2023-12-07T06:18:03;-5.60;99.90
3940;DHT22;1984;48.312;9.244;2023-12-07T06:20:29;-5.60;99.90
3940;DHT22;1984;48.312;9.244;2023-12-07T06:22:54;-5.70;99.90
3940;DHT22;1984;48.312;9.244;2023-12-07T06:25:20;-5.70;99.90
3940;DHT22;1984;48.312;9.244;2023-12-07T06:27:46;-5.80;99.90
3940;DHT22;1984;48.312;9.244;2023-12-07T06:30:11;-5.90;99.90
3940;DHT22;1984;48.312;9.244;2023-12-07T06:32:37;-5.90;99.90
3940;DHT22;1984;48.312;9.244;2023-12-07T06:35:03;-5.80;99.90
3940;DHT22;1984;48.312;9.244;2023-12-07T06:37:32;-5.80;99.90
3940;DHT22;1984;48.312;9.244;2023-12-07T06:39:58;-6.00;99.90
3940;DHT22;1984;48.312;9.244;2023-12-07T06:42:25;-6.10;99.90
3940;DHT22;1984;48.312;9.244;2023-12-07T06:44:51;-6.10;99.90
3940;DHT22;1984;48.312;9.244;2023-12-07T06:47:17;-6.20;99.90
3940;DHT22;1984;48.312;9.244;2023-12-07T06:49:43;-6.40;99.90
3940;DHT22;1984;48.312;9.244;2023-12-07T06:52:09;-6.50;99.90
3940;DHT22;1984;48.312;9.244;2023-12-07T06:54:36;-6.50;99.90
3940;DHT22;1984;48.312;9.244;2023-12-07T06:57:02;-6.40;99.90
3940;DHT22;1984;48.312;9.244;2023-12-07T06:59:27;-6.40;99.90
3940;DHT22;1984;48.312;9.244;2023-12-07T07:01:53;-6.50;99.90
3940;DHT22;1984;48.312;9.244;2023-12-07T07:04:19;-6.40;99.90
3940;DHT22;1984;48.312;9.244;2023-12-07T07:06:45;-6.30;99.90
3940;DHT22;1984;48.312;9.244;2023-12-07T07:09:10;-6.20;99.90
3940;DHT22;1984;48.312;9.244;2023-12-07T07:11:38;-6.20;99.90
3940;DHT22;1984;48.312;9.244;2023-12-07T07:14:03;-6.20;99.90
3940;DHT22;1984;48.312;9.244;2023-12-07T07:16:30;-6.20;99.90
3940;DHT22;1984;48.312;9.244;2023-12-07T07:18:55;-6.20;99.90
3940;DHT22;1984;48.312;9.244;2023-12-07T07:21:21;-6.20;99.90
3940;DHT22;1984;48.312;9.244;2023-12-07T07:23:46;-6.30;99.90
3940;DHT22;1984;48.312;9.244;2023-12-07T07:26:12;-6.20;99.90
3940;DHT22;1984;48.312;9.244;2023-12-07T07:28:42;-6.20;99.90
3940;DHT22;1984;48.312;9.244;2023-12-07T07:31:08;-6.20;99.90
3940;DHT22;1984;48.312;9.244;2023-12-07T07:33:33;-6.20;99.90
3940;DHT22;1984;48.312;9.244;2023-12-07T07:35:59;-6.20;99.90
3940;DHT22;1984;48.312;9.244;2023-12-07T07:38:24;-6.20;99.90
3940;DHT22;1984;48.312;9.244;2023-12-07T07:40:50;-5.60;99.90
3940;DHT22;1984;48.312;9.244;2023-12-07T07:43:15;-4.30;99.90
3940;DHT22;1984;48.312;9.244;2023-12-07T07:45:41;-2.90;99.90
3940;DHT22;1984;48.312;9.244;2023-12-07T07:48:06;-1.80;99.90
3940;DHT22;1984;48.312;9.244;2023-12-07T07:50:33;-0.90;99.90
3940;DHT22;1984;48.312;9.244;2023-12-07T07:53:00;-0.20;99.90
3940;DHT22;1984;48.312;9.244;2023-12-07T07:55:26;0.50;99.90
3940;DHT22;1984;48.312;9.244;2023-12-07T07:57:52;1.10;99.90
3940;DHT22;1984;48.312;9.244;2023-12-07T08:00:18;1.70;99.90
3940;DHT22;1984;48.312;9.244;2023-12-07T08:02:44;2.20;99.90
3940;DHT22;1984;48.312;9.244;2023-12-07T08:05:10;2.60;99.90
3940;DHT22;1984;48.312;9.244;2023-12-07T08:07:36;3.00;99.90
3940;DHT22;1984;48.312;9.244;2023-12-07T08:10:02;3.20;99.90
3940;DHT22;1984;48.312;9.244;2023-12-07T08:12:29;3.40;99.90
3940;DHT22;1984;48.312;9.244;2023-12-07T08:14:54;3.60;99.90
3940;DHT22;1984;48.312;9.244;2023-12-07T08:17:20;3.90;99.90
3940;DHT22;1984;48.312;9.244;2023-12-07T08:19:46;4.20;99.90
3940;DHT22;1984;48.312;9.244;2023-12-07T08:22:12;4.50;99.90
3940;DHT22;1984;48.312;9.244;2023-12-07T08:24:41;4.60;99.90
3940;DHT22;1984;48.312;9.244;2023-12-07T08:27:07;4.80;99.80
3940;DHT22;1984;48.312;9.244;2023-12-07T08:29:32;5.10;98.80
3940;DHT22;1984;48.312;9.244;2023-12-07T08:31:58;5.20;98.40
3940;DHT22;1984;48.312;9.244;2023-12-07T08:34:23;5.10;98.30
3940;DHT22;1984;48.312;9.244;2023-12-07T08:36:50;5.30;97.90
3940;DHT22;1984;48.312;9.244;2023-12-07T08:39:15;5.30;97.70
3940;DHT22;1984;48.312;9.244;2023-12-07T08:41:41;5.20;97.70
3940;DHT22;1984;48.312;9.244;2023-12-07T08:44:06;5.00;97.80
3940;DHT22;1984;48.312;9.244;2023-12-07T08:46:32;5.10;98.00
3940;DHT22;1984;48.312;9.244;2023-12-07T08:48:57;5.50;97.80
3940;DHT22;1984;48.312;9.244;2023-12-07T08:51:23;5.70;97.70
3940;DHT22;1984;48.312;9.244;2023-12-07T08:53:49;6.00;96.90
3940;DHT22;1984;48.312;9.244;2023-12-07T08:56:15;6.10;97.00
3940;DHT22;1984;48.312;9.244;2023-12-07T08:58:40;6.30;97.30
3940;DHT22;1984;48.312;9.244;2023-12-07T09:01:06;6.60;96.20
3940;DHT22;1984;48.312;9.244;2023-12-07T09:03:32;6.80;96.00
3940;DHT22;1984;48.312;9.244;2023-12-07T09:05:59;7.00;96.10
3940;DHT22;1984;48.312;9.244;2023-12-07T09:08:24;7.10;95.80
3940;DHT22;1984;48.312;9.244;2023-12-07T09:10:50;7.50;95.40
3940;DHT22;1984;48.312;9.244;2023-12-07T09:13:17;7.70;94.70
3940;DHT22;1984;48.312;9.244;2023-12-07T09:15:42;7.90;94.80
3940;DHT22;1984;48.312;9.244;2023-12-07T09:18:08;7.70;95.10
3940;DHT22;1984;48.312;9.244;2023-12-07T09:20:33;7.70;95.30
3940;DHT22;1984;48.312;9.244;2023-12-07T09:22:59;8.10;96.40
3940;DHT22;1984;48.312;9.244;2023-12-07T09:25:24;8.80;95.00
3940;DHT22;1984;48.312;9.244;2023-12-07T09:27:53;9.50;95.60
3940;DHT22;1984;48.312;9.244;2023-12-07T09:30:19;9.90;95.20
3940;DHT22;1984;48.312;9.244;2023-12-07T09:32:44;10.10;94.00
3940;DHT22;1984;48.312;9.244;2023-12-07T09:35:10;10.10;93.40
3940;DHT22;1984;48.312;9.244;2023-12-07T09:37:45;9.90;93.60
3940;DHT22;1984;48.312;9.244;2023-12-07T09:40:18;9.90;94.30
3940;DHT22;1984;48.312;9.244;2023-12-07T09:42:45;10.20;94.20
3940;DHT22;1984;48.312;9.244;2023-12-07T09:45:11;10.50;94.10
3940;DHT22;1984;48.312;9.244;2023-12-07T09:47:37;10.70;94.00
3940;DHT22;1984;48.312;9.244;2023-12-07T09:50:06;10.60;93.40
3940;DHT22;1984;48.312;9.244;2023-12-07T09:52:32;10.60;93.60
3940;DHT22;1984;48.312;9.244;2023-12-07T09:54:59;10.60;93.20
3940;DHT22;1984;48.312;9.244;2023-12-07T09:57:24;10.60;93.90
3940;DHT22;1984;48.312;9.244;2023-12-07T09:59:50;10.50;93.90
3940;DHT22;1984;48.312;9.244;2023-12-07T10:02:15;10.30;93.90
3940;DHT22;1984;48.312;9.244;2023-12-07T10:04:41;10.50;94.50
3940;DHT22;1984;48.312;9.244;2023-12-07T10:07:07;11.00;94.30
3940;DHT22;1984;48.312;9.244;2023-12-07T10:09:39;11.50;92.90
3940;DHT22;1984;48.312;9.244;2023-12-07T10:12:06;12.20;93.40
3940;DHT22;1984;48.312;9.244;2023-12-07T10:14:33;12.30;92.30
3940;DHT22;1984;48.312;9.244;2023-12-07T10:16:59;12.10;92.60
3940;DHT22;1984;48.312;9.244;2023-12-07T10:19:25;12.10;92.50
3940;DHT22;1984;48.312;9.244;2023-12-07T10:21:53;12.40;92.50
3940;DHT22;1984;48.312;9.244;2023-12-07T10:24:21;12.70;92.30
3940;DHT22;1984;48.312;9.244;2023-12-07T10:26:48;12.90;92.10
3940;DHT22;1984;48.312;9.244;2023-12-07T10:29:14;13.20;91.20
3940;DHT22;1984;48.312;9.244;2023-12-07T10:31:40;13.40;91.00
3940;DHT22;1984;48.312;9.244;2023-12-07T10:34:06;13.40;91.10
3940;DHT22;1984;48.312;9.244;2023-12-07T10:36:32;13.30;91.30
3940;DHT22;1984;48.312;9.244;2023-12-07T10:39:00;13.10;90.60
3940;DHT22;1984;48.312;9.244;2023-12-07T10:41:26;12.90;91.10
3940;DHT22;1984;48.312;9.244;2023-12-07T10:44:04;12.70;91.60
3940;DHT22;1984;48.312;9.244;2023-12-07T10:46:32;12.30;91.60
3940;DHT22;1984;48.312;9.244;2023-12-07T10:49:01;11.90;92.40
3940;DHT22;1984;48.312;9.244;2023-12-07T10:51:41;11.30;92.90
3940;DHT22;1984;48.312;9.244;2023-12-07T10:54:07;10.70;94.10
3940;DHT22;1984;48.312;9.244;2023-12-07T10:56:44;10.00;94.80
3940;DHT22;1984;48.312;9.244;2023-12-07T10:59:11;9.60;95.30
3940;DHT22;1984;48.312;9.244;2023-12-07T11:01:40;9.10;95.90
3940;DHT22;1984;48.312;9.244;2023-12-07T11:04:11;8.80;96.70
3940;DHT22;1984;48.312;9.244;2023-12-07T11:06:39;8.50;97.10
3940;DHT22;1984;48.312;9.244;2023-12-07T11:09:16;8.10;98.00
3940;DHT22;1984;48.312;9.244;2023-12-07T11:11:54;7.80;98.70
3940;DHT22;1984;48.312;9.244;2023-12-07T11:14:21;7.60;99.40
3940;DHT22;1984;48.312;9.244;2023-12-07T11:16:47;7.40;99.90
3940;DHT22;1984;48.312;9.244;2023-12-07T11:22:10;7.00;99.90
3940;DHT22;1984;48.312;9.244;2023-12-07T11:24:36;6.90;99.90
3940;DHT22;1984;48.312;9.244;2023-12-07T11:27:02;6.80;99.90
3940;DHT22;1984;48.312;9.244;2023-12-07T11:29:28;6.70;99.90
3940;DHT22;1984;48.312;9.244;2023-12-07T11:32:01;6.50;99.90
3940;DHT22;1984;48.312;9.244;2023-12-07T11:34:42;6.40;99.90
3940;DHT22;1984;48.312;9.244;2023-12-07T11:37:09;6.30;99.90
3940;DHT22;1984;48.312;9.244;2023-12-07T11:39:42;6.30;99.90
3940;DHT22;1984;48.312;9.244;2023-12-07T11:42:26;6.30;99.90
3940;DHT22;1984;48.312;9.244;2023-12-07T11:44:51;6.30;99.90
3940;DHT22;1984;48.312;9.244;2023-12-07T11:47:21;6.20;99.90
3940;DHT22;1984;48.312;9.244;2023-12-07T11:49:46;6.20;99.90
3940;DHT22;1984;48.312;9.244;2023-12-07T11:52:19;6.00;99.90
3940;DHT22;1984;48.312;9.244;2023-12-07T11:54:49;5.90;99.90
3940;DHT22;1984;48.312;9.244;2023-12-07T11:57:15;5.80;99.90
3940;DHT22;1984;48.312;9.244;2023-12-07T11:59:44;5.60;99.90
3940;DHT22;1984;48.312;9.244;2023-12-07T12:02:13;5.40;99.90
3940;DHT22;1984;48.312;9.244;2023-12-07T12:04:42;5.30;99.90
3940;DHT22;1984;48.312;9.244;2023-12-07T12:07:07;5.00;99.90
3940;DHT22;1984;48.312;9.244;2023-12-07T12:09:33;4.70;99.90
3940;DHT22;1984;48.312;9.244;2023-12-07T12:11:59;4.50;99.90
3940;DHT22;1984;48.312;9.244;2023-12-07T12:14:26;4.30;99.90
3940;DHT22;1984;48.312;9.244;2023-12-07T12:16:52;4.00;99.90
3940;DHT22;1984;48.312;9.244;2023-12-07T12:19:18;3.60;99.90
3940;DHT22;1984;48.312;9.244;2023-12-07T12:21:43;3.50;99.90
3940;DHT22;1984;48.312;9.244;2023-12-07T12:24:10;3.50;99.90
3940;DHT22;1984;48.312;9.244;2023-12-07T12:26:41;3.60;99.90
3940;DHT22;1984;48.312;9.244;2023-12-07T12:29:07;3.60;99.90
3940;DHT22;1984;48.312;9.244;2023-12-07T12:31:34;3.80;99.90
3940;DHT22;1984;48.312;9.244;2023-12-07T12:34:03;3.90;99.90
3940;DHT22;1984;48.312;9.244;2023-12-07T12:36:30;3.90;99.90
3940;DHT22;1984;48.312;9.244;2023-12-07T12:38:56;3.80;99.90
3940;DHT22;1984;48.312;9.244;2023-12-07T12:41:22;3.60;99.90
3940;DHT22;1984;48.312;9.244;2023-12-07T12:43:49;3.50;99.90
3940;DHT22;1984;48.312;9.244;2023-12-07T12:46:16;3.40;99.90
3940;DHT22;1984;48.312;9.244;2023-12-07T12:51:28;3.20;99.90
3940;DHT22;1984;48.312;9.244;2023-12-07T12:53:55;3.20;99.90
3940;DHT22;1984;48.312;9.244;2023-12-07T12:56:21;3.30;99.90
3940;DHT22;1984;48.312;9.244;2023-12-07T12:58:51;3.50;99.90
3940;DHT22;1984;48.312;9.244;2023-12-07T13:01:18;3.40;99.90
3940;DHT22;1984;48.312;9.244;2023-12-07T13:03:46;3.30;99.90
3940;DHT22;1984;48.312;9.244;2023-12-07T13:06:13;3.30;99.90
3940;DHT22;1984;48.312;9.244;2023-12-07T13:08:40;3.30;99.90
3940;DHT22;1984;48.312;9.244;2023-12-07T13:11:06;3.30;99.90
3940;DHT22;1984;48.312;9.244;2023-12-07T13:13:31;3.40;99.90
3940;DHT22;1984;48.312;9.244;2023-12-07T13:15:57;3.30;99.90
3940;DHT22;1984;48.312;9.244;2023-12-07T13:18:22;3.30;99.90
3940;DHT22;1984;48.312;9.244;2023-12-07T13:20:48;3.30;99.90
3940;DHT22;1984;48.312;9.244;2023-12-07T13:23:13;3.10;99.90
3940;DHT22;1984;48.312;9.244;2023-12-07T13:25:39;2.90;99.90
3940;DHT22;1984;48.312;9.244;2023-12-07T13:28:06;2.70;99.90
3940;DHT22;1984;48.312;9.244;2023-12-07T13:30:34;2.60;99.90
3940;DHT22;1984;48.312;9.244;2023-12-07T13:33:01;2.60;99.90
3940;DHT22;1984;48.312;9.244;2023-12-07T13:35:26;2.50;99.90
3940;DHT22;1984;48.312;9.244;2023-12-07T13:37:52;2.60;99.90
3940;DHT22;1984;48.312;9.244;2023-12-07T13:40:17;2.60;99.90
3940;DHT22;1984;48.312;9.244;2023-12-07T13:42:44;2.50;99.90
3940;DHT22;1984;48.312;9.244;2023-12-07T13:45:09;2.40;99.90
3940;DHT22;1984;48.312;9.244;2023-12-07T13:47:35;2.30;99.90
3940;DHT22;1984;48.312;9.244;2023-12-07T13:50:04;2.30;99.90
3940;DHT22;1984;48.312;9.244;2023-12-07T13:52:30;2.40;99.90
3940;DHT22;1984;48.312;9.244;2023-12-07T13:54:56;2.50;99.90
3940;DHT22;1984;48.312;9.244;2023-12-07T13:57:23;2.50;99.90
3940;DHT22;1984;48.312;9.244;2023-12-07T13:59:50;2.40;99.90
3940;DHT22;1984;48.312;9.244;2023-12-07T14:02:16;2.50;99.90
3940;DHT22;1984;48.312;9.244;2023-12-07T14:04:41;2.40;99.90
3940;DHT22;1984;48.312;9.244;2023-12-07T14:07:15;2.40;99.90
3940;DHT22;1984;48.312;9.244;2023-12-07T14:09:45;2.40;99.90
3940;DHT22;1984;48.312;9.244;2023-12-07T14:12:12;2.30;99.90
3940;DHT22;1984;48.312;9.244;2023-12-07T14:14:41;2.20;99.90
3940;DHT22;1984;48.312;9.244;2023-12-07T14:17:08;2.10;99.90
3940;DHT22;1984;48.312;9.244;2023-12-07T14:19:34;2.10;99.90
3940;DHT22;1984;48.312;9.244;2023-12-07T14:22:00;2.10;99.90
3940;DHT22;1984;48.312;9.244;2023-12-07T14:24:26;2.20;99.90
3940;DHT22;1984;48.312;9.244;2023-12-07T14:26:53;2.10;99.90
3940;DHT22;1984;48.312;9.244;2023-12-07T14:29:19;2.00;99.90
3940;DHT22;1984;48.312;9.244;2023-12-07T14:31:47;2.00;99.90
3940;DHT22;1984;48.312;9.244;2023-12-07T14:34:14;2.00;99.90
3940;DHT22;1984;48.312;9.244;2023-12-07T14:36:40;1.90;99.90
3940;DHT22;1984;48.312;9.244;2023-12-07T14:39:07;1.90;99.90
3940;DHT22;1984;48.312;9.244;2023-12-07T14:41:33;1.80;99.90
3940;DHT22;1984;48.312;9.244;2023-12-07T14:43:59;1.80;99.90
3940;DHT22;1984;48.312;9.244;2023-12-07T14:46:24;1.60;99.90
3940;DHT22;1984;48.312;9.244;2023-12-07T14:48:50;1.50;99.90
3940;DHT22;1984;48.312;9.244;2023-12-07T14:51:19;1.30;99.90
3940;DHT22;1984;48.312;9.244;2023-12-07T14:53:48;1.20;99.90
3940;DHT22;1984;48.312;9.244;2023-12-07T14:56:13;1.10;99.90
3940;DHT22;1984;48.312;9.244;2023-12-07T14:58:39;1.10;99.90
3940;DHT22;1984;48.312;9.244;2023-12-07T15:01:08;1.00;99.90
3940;DHT22;1984;48.312;9.244;2023-12-07T15:03:34;0.90;99.90
3940;DHT22;1984;48.312;9.244;2023-12-07T15:06:00;0.90;99.90
3940;DHT22;1984;48.312;9.244;2023-12-07T15:08:26;1.00;99.90
3940;DHT22;1984;48.312;9.244;2023-12-07T15:10:52;0.90;99.90
3940;DHT22;1984;48.312;9.244;2023-12-07T15:13:20;0.90;99.90
3940;DHT22;1984;48.312;9.244;2023-12-07T15:15:45;0.90;99.90
3940;DHT22;1984;48.312;9.244;2023-12-07T15:18:11;0.80;99.90
3940;DHT22;1984;48.312;9.244;2023-12-07T15:20:36;0.90;99.90
3940;DHT22;1984;48.312;9.244;2023-12-07T15:23:02;0.80;99.90
3940;DHT22;1984;48.312;9.244;2023-12-07T15:25:28;0.80;99.90
3940;DHT22;1984;48.312;9.244;2023-12-07T15:27:54;0.80;99.90
3940;DHT22;1984;48.312;9.244;2023-12-07T15:30:20;0.70;99.90
3940;DHT22;1984;48.312;9.244;2023-12-07T15:32:49;0.60;99.90
3940;DHT22;1984;48.312;9.244;2023-12-07T15:35:15;0.40;99.90
3940;DHT22;1984;48.312;9.244;2023-12-07T15:37:41;0.40;99.90
3940;DHT22;1984;48.312;9.244;2023-12-07T15:40:07;0.40;99.90
3940;DHT22;1984;48.312;9.244;2023-12-07T15:42:38;0.40;99.90
3940;DHT22;1984;48.312;9.244;2023-12-07T15:45:05;0.50;99.90
3940;DHT22;1984;48.312;9.244;2023-12-07T15:47:32;0.40;99.90
3940;DHT22;1984;48.312;9.244;2023-12-07T15:49:58;0.30;99.90
3940;DHT22;1984;48.312;9.244;2023-12-07T15:52:23;0.30;99.90
3940;DHT22;1984;48.312;9.244;2023-12-07T15:54:49;0.30;99.90
3940;DHT22;1984;48.312;9.244;2023-12-07T15:57:14;0.30;99.90
3940;DHT22;1984;48.312;9.244;2023-12-07T15:59:41;0.20;99.90
3940;DHT22;1984;48.312;9.244;2023-12-07T16:02:07;0.20;99.90
3940;DHT22;1984;48.312;9.244;2023-12-07T16:04:33;0.20;99.90
3940;DHT22;1984;48.312;9.244;2023-12-07T16:06:59;0.10;99.90
3940;DHT22;1984;48.312;9.244;2023-12-07T16:09:24;0.00;99.90
3940;DHT22;1984;48.312;9.244;2023-12-07T16:11:50;0.00;99.90